Time;durP1;ratioP1;P1;durP2;ratioP2;P2;SDS_P1;SDS_P2;PMS_P1;PMS_P2;Temp;Humidity;BMP_temperature;BMP_pressure;BME280_temperature;BME280_humidity;BME280_pressure;Samples;Min_cycle;Max_cycle;Signal;HPM_P1;HPM_P2
2023/04/15 00:01:19;;;;;;;6.30;2.90;;;2.50;97.70;;;;;;5061868;28;20851;-56
2023/04/15 00:03:46;;;;;;;4.67;3.17;;;2.40;98.30;;;;;;5062485;28;20209;-56
2023/04/15 00:06:12;;;;;;;8.07;3.17;;;2.40;98.60;;;;;;5061131;28;20460;-56
2023/04/15 00:08:38;;;;;;;6.67;3.00;;;2.40;98.50;;;;;;5064694;28;20425;-56
2023/04/15 00:11:04;;;;;;;4.20;3.00;;;2.30;98.60;;;;;;5061176;28;21119;-56
2023/04/15 00:13:31;;;;;;;4.53;3.30;;;2.30;98.60;;;;;;5061381;28;20528;-58
2023/04/15 00:15:57;;;;;;;4.00;3.00;;;2.30;98.30;;;;;;5050002;28;20976;-56
2023/04/15 00:18:23;;;;;;;5.57;3.27;;;2.30;98.40;;;;;;5054391;28;20539;-56
2023/04/15 00:20:49;;;;;;;6.83;3.67;;;2.30;98.50;;;;;;5052403;28;20217;-56
2023/04/15 00:23:14;;;;;;;3.73;2.93;;;2.20;98.40;;;;;;5050568;28;20547;-57
2023/04/15 00:25:40;;;;;;;5.27;3.50;;;2.20;98.50;;;;;;5045652;28;20279;-56
2023/04/15 00:28:06;;;;;;;6.30;4.30;;;2.20;98.20;;;;;;5050032;28;22088;-56
2023/04/15 00:30:32;;;;;;;8.80;4.00;;;2.20;98.40;;;;;;5050194;28;20243;-57
2023/04/15 00:32:58;;;;;;;11.60;5.13;;;2.10;98.80;;;;;;5051679;28;20601;-56
2023/04/15 00:35:23;;;;;;;10.13;3.93;;;2.10;98.50;;;;;;5056469;28;20624;-56
2023/04/15 00:37:49;;;;;;;4.50;2.77;;;2.10;98.70;;;;;;5053245;28;20184;-57
2023/04/15 00:40:17;;;;;;;4.40;2.90;;;2.10;98.70;;;;;;5054731;28;20573;-55
2023/04/15 00:42:43;;;;;;;3.53;2.73;;;2.10;98.10;;;;;;5055177;28;20641;-56
2023/04/15 00:45:09;;;;;;;16.93;3.47;;;2.10;97.80;;;;;;5051002;28;20457;-57
2023/04/15 00:47:36;;;;;;;4.37;3.30;;;2.10;97.50;;;;;;5051193;28;20437;-55
2023/04/15 00:50:02;;;;;;;5.83;2.73;;;2.00;97.60;;;;;;5057180;28;20428;-57
2023/04/15 00:52:27;;;;;;;4.13;2.80;;;1.90;97.60;;;;;;5056966;28;20452;-58
2023/04/15 00:54:53;;;;;;;2.97;2.67;;;1.90;98.10;;;;;;5057430;28;20181;-58
2023/04/15 00:57:21;;;;;;;3.60;2.70;;;1.90;98.50;;;;;;5051505;28;20188;-57
2023/04/15 00:59:47;;;;;;;3.90;2.60;;;1.90;98.70;;;;;;5056094;28;20263;-57
2023/04/15 01:02:13;;;;;;;5.10;2.47;;;1.80;99.20;;;;;;5059436;28;20993;-56
2023/04/15 01:04:39;;;;;;;4.33;2.77;;;1.80;99.60;;;;;;5047991;28;20468;-56
2023/04/15 01:07:05;;;;;;;7.90;2.67;;;1.80;99.90;;;;;;5052561;28;20828;-54
2023/04/15 01:09:32;;;;;;;3.33;2.93;;;1.80;99.90;;;;;;5053868;28;20182;-57
2023/04/15 01:11:58;;;;;;;10.67;4.97;;;1.80;99.90;;;;;;5052352;28;20471;-57
2023/04/15 01:14:24;;;;;;;3.77;2.57;;;1.80;99.60;;;;;;5051472;28;20972;-56
2023/04/15 01:16:51;;;;;;;4.53;2.90;;;1.70;99.90;;;;;;5047344;28;20182;-58
2023/04/15 01:19:17;;;;;;;4.13;3.13;;;1.70;99.90;;;;;;5052404;28;20459;-56
2023/04/15 01:21:43;;;;;;;4.57;2.97;;;1.70;99.90;;;;;;5052759;28;20929;-57
2023/04/15 01:24:10;;;;;;;7.60;2.87;;;1.70;99.90;;;;;;5055096;28;20240;-57
2023/04/15 01:26:39;;;;;;;5.40;3.43;;;1.70;99.90;;;;;;5059350;28;20420;-56
2023/04/15 01:29:05;;;;;;;3.63;2.80;;;1.70;99.90;;;;;;5060915;28;20433;-58
2023/04/15 01:31:31;;;;;;;5.70;3.30;;;1.60;99.90;;;;;;5053647;28;20959;-56
2023/04/15 01:33:58;;;;;;;6.40;2.97;;;1.60;99.90;;;;;;5055572;28;20991;-58
2023/04/15 01:36:24;;;;;;;6.40;3.80;;;1.60;99.90;;;;;;5055842;28;20262;-56
2023/04/15 01:38:50;;;;;;;4.07;3.23;;;1.60;99.90;;;;;;5056951;28;21003;-56
2023/04/15 01:41:16;;;;;;;4.47;3.40;;;1.60;99.90;;;;;;5050412;28;20182;-56
2023/04/15 01:43:41;;;;;;;7.20;2.83;;;1.60;99.90;;;;;;5060826;28;20463;-57
2023/04/15 01:46:07;;;;;;;4.90;3.30;;;1.60;99.90;;;;;;5064581;28;20205;-58
2023/04/15 01:48:33;;;;;;;4.10;3.00;;;1.60;99.90;;;;;;5056121;28;20176;-57
2023/04/15 01:50:59;;;;;;;9.30;3.33;;;1.50;99.90;;;;;;5058577;28;20202;-57
2023/04/15 01:53:25;;;;;;;5.13;3.17;;;1.50;99.90;;;;;;5060156;28;20569;-57
2023/04/15 01:55:51;;;;;;;7.53;3.47;;;1.50;99.90;;;;;;5062596;28;20201;-57
2023/04/15 01:58:17;;;;;;;3.50;2.53;;;1.50;99.90;;;;;;5063826;28;20798;-57
2023/04/15 02:00:44;;;;;;;8.30;3.70;;;1.50;99.90;;;;;;5059914;28;20433;-57
2023/04/15 02:03:09;;;;;;;10.70;3.43;;;1.50;99.90;;;;;;5062374;28;20440;-56
2023/04/15 02:05:35;;;;;;;4.33;2.80;;;1.50;99.90;;;;;;5063698;28;20589;-56
2023/04/15 02:08:01;;;;;;;4.70;3.20;;;1.40;99.90;;;;;;5063373;28;20657;-60
2023/04/15 02:10:26;;;;;;;4.87;3.10;;;1.40;99.90;;;;;;5061475;28;20183;-57
2023/04/15 02:12:53;;;;;;;3.80;2.87;;;1.40;99.90;;;;;;5060119;28;22352;-56
2023/04/15 02:15:19;;;;;;;5.87;3.37;;;1.40;99.90;;;;;;5056619;28;20180;-55
2023/04/15 02:17:49;;;;;;;5.17;3.23;;;1.40;99.90;;;;;;5052540;28;20463;-57
2023/04/15 02:20:16;;;;;;;8.57;3.70;;;1.40;99.90;;;;;;5050146;28;20779;-56
2023/04/15 02:22:42;;;;;;;5.70;3.40;;;1.30;99.90;;;;;;5046595;28;20452;-57
2023/04/15 02:25:08;;;;;;;6.00;2.97;;;1.30;99.90;;;;;;5044704;28;20928;-56
2023/04/15 02:27:35;;;;;;;8.23;3.27;;;1.30;99.90;;;;;;5045188;28;20585;-55
2023/04/15 02:30:00;;;;;;;10.20;3.10;;;1.30;99.90;;;;;;5050969;28;21248;-56
2023/04/15 02:32:27;;;;;;;4.93;2.83;;;1.30;99.90;;;;;;5048863;28;20457;-56
2023/04/15 02:34:53;;;;;;;5.37;2.80;;;1.30;99.90;;;;;;5047176;28;20190;-57
2023/04/15 02:37:19;;;;;;;7.13;2.90;;;1.20;99.90;;;;;;5048163;28;20435;-56
2023/04/15 02:39:45;;;;;;;6.27;2.63;;;1.20;99.90;;;;;;5054322;28;20856;-55
2023/04/15 02:42:12;;;;;;;7.00;3.10;;;1.20;99.90;;;;;;5049524;28;20441;-55
2023/04/15 02:44:37;;;;;;;5.03;3.60;;;1.20;99.90;;;;;;5052923;28;20481;-55
2023/04/15 02:47:05;;;;;;;4.43;3.00;;;1.20;99.90;;;;;;5048553;28;20432;-57
2023/04/15 02:49:31;;;;;;;5.03;3.03;;;1.20;99.90;;;;;;5051600;28;20179;-56
2023/04/15 02:51:57;;;;;;;11.80;3.30;;;1.20;99.90;;;;;;5055969;28;20908;-55
2023/04/15 02:54:23;;;;;;;4.03;3.30;;;1.20;99.90;;;;;;5058295;28;20192;-56
2023/04/15 02:56:49;;;;;;;3.70;2.90;;;1.20;99.90;;;;;;5050507;28;20541;-58
2023/04/15 02:59:15;;;;;;;3.17;2.87;;;1.20;99.90;;;;;;5054719;28;20973;-56
2023/04/15 03:01:41;;;;;;;3.90;3.17;;;1.20;99.90;;;;;;5056992;28;20623;-55
2023/04/15 03:04:07;;;;;;;9.67;3.23;;;1.20;99.90;;;;;;5048607;28;20203;-56
2023/04/15 03:06:33;;;;;;;7.43;3.07;;;1.20;99.90;;;;;;5061681;28;20204;-55
2023/04/15 03:08:59;;;;;;;8.40;2.90;;;1.20;99.90;;;;;;5064031;28;20454;-56
2023/04/15 03:11:26;;;;;;;4.57;3.27;;;1.10;99.90;;;;;;5056098;28;20873;-57
2023/04/15 03:13:51;;;;;;;3.80;2.77;;;1.10;99.90;;;;;;5057436;28;20198;-58
2023/04/15 03:16:17;;;;;;;4.07;2.53;;;1.10;99.90;;;;;;5053827;28;20444;-55
2023/04/15 03:18:43;;;;;;;5.00;2.43;;;1.10;99.90;;;;;;5058054;28;20267;-58
2023/04/15 03:21:08;;;;;;;5.50;2.30;;;1.00;99.90;;;;;;5050992;28;20243;-54
2023/04/15 03:23:34;;;;;;;3.67;2.80;;;1.00;99.90;;;;;;5051581;28;20737;-57
2023/04/15 03:26:03;;;;;;;3.57;2.50;;;1.10;99.90;;;;;;5054794;28;20207;-55
2023/04/15 03:28:29;;;;;;;6.67;2.60;;;1.00;99.90;;;;;;5051310;28;20179;-56
2023/04/15 03:30:55;;;;;;;7.60;2.80;;;1.00;99.90;;;;;;5051879;28;20435;-57
2023/04/15 03:33:21;;;;;;;7.20;3.50;;;1.00;99.90;;;;;;5053727;28;20841;-57
2023/04/15 03:35:47;;;;;;;10.47;3.30;;;1.00;99.90;;;;;;5056294;28;20640;-57
2023/04/15 03:38:12;;;;;;;4.07;3.10;;;0.90;99.90;;;;;;5057316;28;20752;-57
2023/04/15 03:40:41;;;;;;;3.80;2.70;;;1.00;99.90;;;;;;5049118;28;20176;-58
2023/04/15 03:43:06;;;;;;;7.60;2.73;;;0.90;99.90;;;;;;5055297;28;20200;-56
2023/04/15 03:45:32;;;;;;;8.13;3.13;;;0.90;99.90;;;;;;5052995;28;20459;-56
2023/04/15 03:47:58;;;;;;;4.33;2.67;;;0.90;99.90;;;;;;5054612;28;20693;-57
2023/04/15 03:50:23;;;;;;;5.70;2.83;;;0.90;99.90;;;;;;5074299;28;20512;-60
2023/04/15 03:52:49;;;;;;;5.47;2.90;;;0.90;99.90;;;;;;5073267;28;20221;-58
2023/04/15 03:55:15;;;;;;;5.43;2.80;;;0.90;99.90;;;;;;5077078;28;20193;-57
2023/04/15 03:57:40;;;;;;;3.93;3.00;;;0.80;99.90;;;;;;5076238;28;20185;-58
2023/04/15 04:00:10;;;;;;;4.03;2.87;;;0.80;99.90;;;;;;5074362;28;20198;-60
2023/04/15 04:02:36;;;;;;;3.87;2.67;;;0.80;99.90;;;;;;5077818;28;20220;-57
2023/04/15 04:05:02;;;;;;;7.97;2.70;;;0.80;99.90;;;;;;5081107;28;20492;-57
2023/04/15 04:07:28;;;;;;;3.37;2.40;;;0.80;99.90;;;;;;5081579;28;20518;-59
2023/04/15 04:09:56;;;;;;;3.67;2.90;;;0.80;99.90;;;;;;5078193;28;20535;-64
2023/04/15 04:12:22;;;;;;;5.00;2.90;;;0.80;99.90;;;;;;5067755;28;20887;-56
2023/04/15 04:14:47;;;;;;;7.00;3.43;;;0.70;99.90;;;;;;5064043;28;20464;-63
2023/04/15 04:17:13;;;;;;;8.53;3.20;;;0.70;99.90;;;;;;5079611;28;20181;-60
2023/04/15 04:19:38;;;;;;;5.83;3.10;;;0.60;99.90;;;;;;5084728;28;20173;-59
2023/04/15 04:22:04;;;;;;;6.50;3.70;;;0.60;99.90;;;;;;5082584;28;20171;-57
2023/04/15 04:24:30;;;;;;;5.43;3.67;;;0.60;99.90;;;;;;5073860;28;20740;-55
2023/04/15 04:26:56;;;;;;;6.07;3.23;;;0.50;99.90;;;;;;5052590;28;20177;-56
2023/04/15 04:29:22;;;;;;;5.47;3.40;;;0.50;99.90;;;;;;5048976;28;20446;-57
2023/04/15 04:31:48;;;;;;;6.40;3.77;;;0.50;99.90;;;;;;5055722;28;20442;-58
2023/04/15 04:34:14;;;;;;;6.80;3.80;;;0.50;99.90;;;;;;5052633;28;20653;-56
2023/04/15 04:36:40;;;;;;;5.90;3.50;;;0.60;99.90;;;;;;5062443;28;20436;-56
2023/04/15 04:39:06;;;;;;;9.37;4.00;;;0.60;99.90;;;;;;5051312;28;20975;-56
2023/04/15 04:41:31;;;;;;;4.20;3.50;;;0.60;99.90;;;;;;5049067;28;20272;-57
2023/04/15 04:43:57;;;;;;;11.20;3.83;;;0.60;99.90;;;;;;5053792;28;20203;-57
2023/04/15 04:46:22;;;;;;;6.13;3.40;;;0.60;99.90;;;;;;5048064;28;20271;-58
2023/04/15 04:48:48;;;;;;;7.00;3.87;;;0.70;99.90;;;;;;5074250;28;20174;-57
2023/04/15 04:51:14;;;;;;;7.70;3.60;;;0.70;99.90;;;;;;5070262;28;20253;-55
2023/04/15 04:53:41;;;;;;;6.87;3.50;;;0.70;99.90;;;;;;5066853;28;20543;-56
2023/04/15 04:56:07;;;;;;;11.97;4.07;;;0.70;99.90;;;;;;5059947;28;20446;-54
2023/04/15 04:58:33;;;;;;;7.83;3.20;;;0.70;99.90;;;;;;5052965;28;20446;-55
2023/04/15 05:00:59;;;;;;;4.73;3.50;;;0.70;99.90;;;;;;5056373;28;20447;-56
2023/04/15 05:03:24;;;;;;;4.87;2.83;;;0.80;99.90;;;;;;5056377;28;20236;-56
2023/04/15 05:05:50;;;;;;;15.47;3.00;;;0.80;99.90;;;;;;5061879;28;20234;-58
2023/04/15 05:08:16;;;;;;;7.77;3.13;;;0.90;99.90;;;;;;5060633;28;20185;-56
2023/04/15 05:10:41;;;;;;;3.90;3.33;;;1.00;99.90;;;;;;5061096;28;20178;-56
2023/04/15 05:13:07;;;;;;;3.33;3.03;;;1.00;99.90;;;;;;5066694;28;20198;-57
2023/04/15 05:15:33;;;;;;;6.50;3.27;;;1.10;99.90;;;;;;5065541;28;20188;-58
2023/04/15 05:17:59;;;;;;;5.77;3.10;;;1.10;99.90;;;;;;5062901;28;20167;-58
2023/04/15 05:20:25;;;;;;;6.73;3.27;;;1.20;99.90;;;;;;5065827;28;20552;-57
2023/04/15 05:22:50;;;;;;;8.87;3.50;;;1.30;99.90;;;;;;5061982;28;20293;-56
2023/04/15 05:25:17;;;;;;;6.87;3.23;;;1.30;99.90;;;;;;5065762;28;20208;-57
2023/04/15 05:27:43;;;;;;;7.70;3.70;;;1.30;99.90;;;;;;5055728;28;20181;-55
2023/04/15 05:30:09;;;;;;;5.67;3.50;;;1.30;99.90;;;;;;5057219;28;20493;-55
2023/04/15 05:32:35;;;;;;;10.03;5.00;;;1.30;99.90;;;;;;5053919;28;20481;-56
2023/04/15 05:35:00;;;;;;;5.43;2.97;;;1.30;99.90;;;;;;5054958;28;21000;-57
2023/04/15 05:37:26;;;;;;;6.73;3.80;;;1.40;99.90;;;;;;5063321;28;20215;-57
2023/04/15 05:39:51;;;;;;;5.03;3.13;;;1.40;99.90;;;;;;5065368;28;20435;-55
2023/04/15 05:42:17;;;;;;;11.67;3.40;;;1.40;99.90;;;;;;5062538;28;20817;-56
2023/04/15 05:44:43;;;;;;;5.37;3.67;;;1.50;99.90;;;;;;5061431;28;20209;-56
2023/04/15 05:47:09;;;;;;;5.00;3.50;;;1.60;99.90;;;;;;5057803;28;20175;-57
2023/04/15 05:49:35;;;;;;;5.60;3.30;;;1.60;99.90;;;;;;5067508;28;20587;-54
2023/04/15 05:52:01;;;;;;;4.80;3.60;;;1.60;99.90;;;;;;5066168;28;20438;-57
2023/04/15 05:54:26;;;;;;;8.50;3.87;;;1.60;99.90;;;;;;5062920;28;20250;-55
2023/04/15 05:56:53;;;;;;;9.47;3.77;;;1.60;99.90;;;;;;5064838;28;20265;-56
2023/04/15 05:59:18;;;;;;;7.80;3.63;;;1.70;99.90;;;;;;5057558;28;20204;-56
2023/04/15 06:01:44;;;;;;;7.30;2.93;;;1.70;99.90;;;;;;5063263;28;20476;-55
2023/04/15 06:04:10;;;;;;;4.27;2.90;;;1.70;99.90;;;;;;5063049;28;20200;-56
2023/04/15 06:06:37;;;;;;;4.23;3.13;;;1.70;99.90;;;;;;5064465;28;20210;-57
2023/04/15 06:09:03;;;;;;;6.77;3.20;;;1.80;99.90;;;;;;5055902;28;20437;-57
2023/04/15 06:11:29;;;;;;;5.00;3.03;;;1.80;99.90;;;;;;5057625;28;20953;-54
2023/04/15 06:13:55;;;;;;;7.77;3.83;;;1.90;99.90;;;;;;5058029;28;20453;-56
2023/04/15 06:16:21;;;;;;;8.20;3.67;;;1.90;99.90;;;;;;5059878;28;20443;-57
2023/04/15 06:18:47;;;;;;;5.60;3.80;;;2.00;99.90;;;;;;5064225;28;20466;-56
2023/04/15 06:21:13;;;;;;;16.27;3.70;;;2.10;99.90;;;;;;5061711;28;20588;-56
2023/04/15 06:23:40;;;;;;;5.23;3.43;;;2.10;99.90;;;;;;5050846;28;20250;-56
2023/04/15 06:26:06;;;;;;;5.10;3.80;;;2.20;99.90;;;;;;5054051;28;20464;-57
2023/04/15 06:28:31;;;;;;;9.30;4.50;;;2.30;99.90;;;;;;5047248;28;20537;-55
2023/04/15 06:30:57;;;;;;;6.93;4.03;;;2.30;99.90;;;;;;5086379;22;20501;-55
2023/04/15 06:33:22;;;;;;;5.60;3.70;;;2.40;99.90;;;;;;5055467;28;20257;-55
2023/04/15 06:35:49;;;;;;;10.47;4.50;;;2.40;99.90;;;;;;5059200;28;20274;-56
2023/04/15 06:38:14;;;;;;;12.53;4.27;;;2.50;99.90;;;;;;5055378;28;20257;-53
2023/04/15 06:40:41;;;;;;;11.10;4.33;;;2.50;99.90;;;;;;5056392;28;20553;-54
2023/04/15 06:43:06;;;;;;;6.60;4.03;;;2.60;99.90;;;;;;5056937;28;20258;-56
2023/04/15 06:45:32;;;;;;;5.40;3.17;;;2.60;99.90;;;;;;5061001;28;20962;-55
2023/04/15 06:47:58;;;;;;;5.07;3.40;;;2.70;99.90;;;;;;5054659;28;20181;-55
2023/04/15 06:50:23;;;;;;;6.17;4.00;;;2.80;99.90;;;;;;5048808;28;20207;-56
2023/04/15 06:52:49;;;;;;;7.77;4.20;;;2.80;99.90;;;;;;5054428;28;20192;-53
2023/04/15 06:55:15;;;;;;;10.70;4.77;;;3.00;99.90;;;;;;5057284;28;20185;-56
2023/04/15 06:57:41;;;;;;;13.00;4.80;;;3.10;99.90;;;;;;5054927;28;20448;-55
2023/04/15 07:00:07;;;;;;;10.60;4.43;;;3.40;99.90;;;;;;5052036;28;20258;-57
2023/04/15 07:02:33;;;;;;;12.60;4.70;;;3.50;99.50;;;;;;5039053;28;20210;-55
2023/04/15 07:04:58;;;;;;;12.83;6.80;;;3.70;95.80;;;;;;5052099;28;20584;-56
2023/04/15 07:07:24;;;;;;;17.60;7.40;;;3.90;95.50;;;;;;5053497;28;20190;-58
2023/04/15 07:09:51;;;;;;;17.23;6.23;;;4.00;94.70;;;;;;5053714;28;20179;-58
2023/04/15 07:12:16;;;;;;;15.57;7.63;;;4.10;94.60;;;;;;5056301;28;20675;-56
2023/04/15 07:14:42;;;;;;;12.50;6.57;;;4.30;92.80;;;;;;5052661;28;20460;-55
2023/04/15 07:17:08;;;;;;;17.83;7.13;;;4.30;91.60;;;;;;5056382;28;20185;-54
2023/04/15 07:19:34;;;;;;;20.67;8.03;;;4.50;91.80;;;;;;5051554;28;20195;-56
2023/04/15 07:22:00;;;;;;;22.80;9.10;;;4.60;91.00;;;;;;5044969;28;20456;-54
2023/04/15 07:24:25;;;;;;;15.73;7.33;;;4.70;92.20;;;;;;5051707;28;20439;-54
2023/04/15 07:26:53;;;;;;;14.73;7.60;;;4.90;91.10;;;;;;5052160;28;20651;-53
2023/04/15 07:29:19;;;;;;;21.30;7.63;;;5.00;91.20;;;;;;5044560;28;20197;-55
2023/04/15 07:31:45;;;;;;;27.87;7.60;;;5.10;91.00;;;;;;5051984;28;20476;-52
2023/04/15 07:34:10;;;;;;;15.47;7.70;;;5.20;91.50;;;;;;5052388;28;20171;-53
2023/04/15 07:36:36;;;;;;;15.57;7.90;;;5.30;91.70;;;;;;5050205;28;20667;-52
2023/04/15 07:39:03;;;;;;;13.50;8.20;;;5.40;91.60;;;;;;5054769;28;20204;-51
2023/04/15 07:41:29;;;;;;;17.30;9.33;;;5.50;90.40;;;;;;5055972;28;20248;-56
2023/04/15 07:43:55;;;;;;;15.97;8.17;;;5.50;88.40;;;;;;5054670;28;20440;-54
2023/04/15 07:46:23;;;;;;;17.20;7.93;;;5.60;88.80;;;;;;5057195;28;20457;-55
2023/04/15 07:48:48;;;;;;;18.00;8.20;;;5.70;87.60;;;;;;5050110;28;20240;-55
2023/04/15 07:51:14;;;;;;;15.83;7.73;;;5.70;87.60;;;;;;5051988;28;20869;-54
2023/04/15 07:53:39;;;;;;;14.40;6.90;;;5.80;88.20;;;;;;5056236;28;20239;-55
2023/04/15 07:56:05;;;;;;;16.67;8.33;;;6.00;89.40;;;;;;5056472;28;20560;-54
2023/04/15 07:58:31;;;;;;;15.10;8.27;;;6.10;87.70;;;;;;5054223;28;20186;-56
2023/04/15 08:00:56;;;;;;;16.93;8.50;;;6.20;86.00;;;;;;5040857;28;20199;-55
2023/04/15 08:03:24;;;;;;;19.00;8.50;;;6.40;84.60;;;;;;5054309;28;20186;-54
2023/04/15 08:05:49;;;;;;;23.60;8.83;;;6.50;83.40;;;;;;5052579;28;20213;-56
2023/04/15 08:08:15;;;;;;;20.70;8.10;;;6.70;81.80;;;;;;5049619;28;20468;-55
2023/04/15 08:10:41;;;;;;;19.30;7.57;;;6.90;80.60;;;;;;5049901;28;20194;-56
2023/04/15 08:13:06;;;;;;;20.90;8.40;;;7.00;79.30;;;;;;5054270;28;20420;-55
2023/04/15 08:15:32;;;;;;;11.93;7.00;;;7.20;77.60;;;;;;5049927;28;20187;-55
2023/04/15 08:17:59;;;;;;;12.40;6.67;;;7.40;75.00;;;;;;5060463;28;20193;-56
2023/04/15 08:20:25;;;;;;;18.00;6.23;;;7.50;73.20;;;;;;5051739;28;20201;-55
2023/04/15 08:22:51;;;;;;;8.80;4.13;;;7.60;71.30;;;;;;5057421;28;20571;-56
2023/04/15 08:25:18;;;;;;;3.67;2.73;;;7.70;67.10;;;;;;5054403;28;20302;-57
2023/04/15 08:27:44;;;;;;;5.27;3.20;;;7.80;63.60;;;;;;5054553;28;20570;-56
2023/04/15 08:30:10;;;;;;;7.20;3.63;;;7.80;62.90;;;;;;5054731;28;20485;-56
2023/04/15 08:32:36;;;;;;;8.57;3.37;;;7.90;62.10;;;;;;5059293;28;21010;-56
2023/04/15 08:35:02;;;;;;;6.23;3.20;;;8.00;61.60;;;;;;5055068;28;20534;-56
2023/04/15 08:37:28;;;;;;;4.50;3.37;;;8.10;61.80;;;;;;5058003;28;20424;-55
2023/04/15 08:39:53;;;;;;;5.13;2.70;;;8.20;61.80;;;;;;5053937;28;20193;-56
2023/04/15 08:42:25;;;;;;;11.93;2.97;;;8.40;61.50;;;;;;5055711;28;20182;-55
2023/04/15 08:44:52;;;;;;;4.80;2.60;;;8.50;60.60;;;;;;5056260;28;20433;-56
2023/04/15 08:47:21;;;;;;;5.47;3.17;;;8.70;59.80;;;;;;5057062;28;20538;-54
2023/04/15 08:49:52;;;;;;;9.53;3.33;;;8.70;58.30;;;;;;5048048;28;22488;-53
2023/04/15 08:52:19;;;;;;;6.13;2.80;;;8.80;59.10;;;;;;5052336;28;20444;-55
2023/04/15 08:54:44;;;;;;;5.50;2.73;;;8.90;57.30;;;;;;5054213;28;20436;-55
2023/04/15 08:57:11;;;;;;;3.30;2.17;;;9.00;57.20;;;;;;5056067;28;20444;-54
2023/04/15 08:59:37;;;;;;;4.80;2.30;;;9.10;56.00;;;;;;5062700;28;20202;-56
2023/04/15 09:02:03;;;;;;;4.83;1.97;;;9.20;55.50;;;;;;5056079;28;20531;-56
2023/04/15 09:04:29;;;;;;;5.30;2.20;;;9.40;55.20;;;;;;5055344;28;21217;-56
2023/04/15 09:06:56;;;;;;;8.63;2.77;;;9.60;55.90;;;;;;5055600;28;20464;-56
2023/04/15 09:09:21;;;;;;;3.03;2.20;;;9.80;56.10;;;;;;5052057;28;20182;-56
2023/04/15 09:11:48;;;;;;;10.07;2.60;;;9.90;55.50;;;;;;5056268;28;20448;-54
2023/04/15 09:14:14;;;;;;;3.23;2.10;;;10.00;52.60;;;;;;5055877;28;20171;-57
2023/04/15 09:16:59;;;;;;;4.10;2.97;;;10.10;52.80;;;;;;5053764;28;21069;-55
2023/04/15 09:19:26;;;;;;;5.30;2.63;;;10.20;51.90;;;;;;5057892;28;20178;-56
2023/04/15 09:21:55;;;;;;;5.03;2.47;;;10.20;51.40;;;;;;5050732;28;20456;-55
2023/04/15 09:24:22;;;;;;;4.90;2.43;;;10.20;50.30;;;;;;5056940;28;20928;-55
2023/04/15 09:26:53;;;;;;;4.00;2.43;;;10.20;49.80;;;;;;5057723;28;20551;-55
2023/04/15 09:29:19;;;;;;;6.20;2.60;;;10.10;49.10;;;;;;5041440;28;20440;-56
2023/04/15 09:31:45;;;;;;;5.00;2.33;;;10.10;49.00;;;;;;5047592;28;20459;-55
2023/04/15 09:34:11;;;;;;;5.47;2.33;;;10.10;49.90;;;;;;5054211;28;20458;-53
2023/04/15 09:36:55;;;;;;;9.00;3.30;;;10.10;50.00;;;;;;5049793;28;20946;-47
2023/04/15 09:39:20;;;;;;;5.37;2.33;;;10.10;49.90;;;;;;5049819;28;20481;-51
2023/04/15 09:41:46;;;;;;;4.80;2.17;;;10.20;49.80;;;;;;5051766;28;20468;-52
2023/04/15 09:44:23;;;;;;;5.00;2.40;;;10.20;49.30;;;;;;5053511;28;20266;-51
2023/04/15 09:46:48;;;;;;;6.80;2.53;;;10.20;49.40;;;;;;5055037;28;20216;-51
2023/04/15 09:49:14;;;;;;;5.27;2.50;;;10.20;50.00;;;;;;5042354;28;20445;-56
2023/04/15 09:51:40;;;;;;;3.57;2.10;;;10.30;48.50;;;;;;5064716;28;20689;-56
2023/04/15 09:54:06;;;;;;;3.27;2.10;;;10.30;48.00;;;;;;5066513;28;20428;-55
2023/04/15 09:56:41;;;;;;;6.97;2.33;;;10.30;48.50;;;;;;5060612;28;20178;-56
2023/04/15 09:59:09;;;;;;;6.47;2.47;;;10.30;48.60;;;;;;5063187;28;20173;-57
2023/04/15 10:01:36;;;;;;;2.97;2.20;;;10.30;48.10;;;;;;5056894;28;20546;-57
2023/04/15 10:04:05;;;;;;;22.17;6.70;;;10.40;48.30;;;;;;5066200;28;20425;-55
2023/04/15 10:06:31;;;;;;;7.73;3.20;;;10.50;48.50;;;;;;5066836;28;20469;-55
2023/04/15 10:08:57;;;;;;;178.83;31.87;;;10.50;47.90;;;;;;5066798;28;20421;-56
2023/04/15 10:11:23;;;;;;;15.53;4.23;;;10.60;47.50;;;;;;5062206;28;20452;-55
2023/04/15 10:13:50;;;;;;;2.43;1.70;;;10.70;47.60;;;;;;5067981;28;20432;-56
2023/04/15 10:16:19;;;;;;;10.50;2.60;;;10.80;46.10;;;;;;5063226;28;20463;-56
2023/04/15 10:18:46;;;;;;;7.10;2.23;;;10.90;46.50;;;;;;5064100;28;20708;-56
2023/04/15 10:21:15;;;;;;;6.27;1.93;;;11.10;46.80;;;;;;5065324;28;20436;-56
2023/04/15 10:23:41;;;;;;;3.27;1.70;;;11.40;48.00;;;;;;5066037;28;20432;-56
2023/04/15 10:26:08;;;;;;;4.80;1.90;;;11.80;47.80;;;;;;5066330;28;20452;-56
2023/04/15 10:28:34;;;;;;;3.73;2.10;;;12.10;47.30;;;;;;5066253;28;20439;-56
2023/04/15 10:31:00;;;;;;;7.57;2.20;;;12.40;46.30;;;;;;5059220;28;20452;-56
2023/04/15 10:33:27;;;;;;;2.30;1.90;;;12.50;45.60;;;;;;5069173;28;20623;-56
2023/04/15 10:35:55;;;;;;;7.50;2.00;;;12.40;43.10;;;;;;5067914;28;20472;-57
2023/04/15 10:38:36;;;;;;;5.50;2.40;;;12.20;43.20;;;;;;5065099;28;20436;-57
2023/04/15 10:41:22;;;;;;;8.43;2.03;;;12.00;44.00;;;;;;5063895;28;20455;-56
2023/04/15 10:44:03;;;;;;;5.50;2.30;;;11.80;44.70;;;;;;5054526;28;20995;-56
2023/04/15 10:46:40;;;;;;;6.77;2.30;;;11.50;45.20;;;;;;5061162;28;20489;-57
2023/04/15 10:49:08;;;;;;;2.30;2.07;;;11.30;45.80;;;;;;5062984;28;20427;-57
2023/04/15 10:51:40;;;;;;;7.83;2.50;;;11.20;46.10;;;;;;5066154;28;20929;-55
2023/04/15 10:54:12;;;;;;;9.77;2.50;;;10.90;46.50;;;;;;5059362;28;20417;-56
2023/04/15 10:56:40;;;;;;;4.50;2.13;;;10.80;47.20;;;;;;5066905;28;21054;-54
2023/04/15 10:59:06;;;;;;;5.00;2.00;;;10.70;47.80;;;;;;5043105;28;21023;-56
2023/04/15 11:01:51;;;;;;;5.57;2.13;;;10.60;47.70;;;;;;5063946;28;20498;-54
2023/04/15 11:04:56;;;;;;;8.50;2.23;;;10.50;47.40;;;;;;5067413;28;20434;-54
2023/04/15 11:07:46;;;;;;;6.30;2.20;;;10.40;47.90;;;;;;5063992;28;20424;-56
2023/04/15 11:10:19;;;;;;;10.17;2.50;;;10.40;48.30;;;;;;5059525;28;20454;-55
2023/04/15 11:12:52;;;;;;;6.23;2.37;;;10.40;48.40;;;;;;5068592;28;20510;-56
2023/04/15 11:15:39;;;;;;;4.07;1.97;;;10.50;48.70;;;;;;5066965;28;20428;-55
2023/04/15 11:18:12;;;;;;;4.47;2.40;;;10.50;48.90;;;;;;5066496;28;20505;-55
2023/04/15 11:20:39;;;;;;;4.67;2.50;;;10.60;48.00;;;;;;5067090;28;20506;-55
2023/04/15 11:23:05;;;;;;;6.00;2.63;;;10.60;48.10;;;;;;5065238;28;20944;-56
2023/04/15 11:25:33;;;;;;;5.13;2.73;;;10.70;47.80;;;;;;5066268;28;20470;-57
2023/04/15 11:28:00;;;;;;;9.00;2.97;;;10.90;46.90;;;;;;5058521;28;21138;-57
2023/04/15 11:30:29;;;;;;;6.40;2.83;;;10.90;46.80;;;;;;5067846;28;20552;-55
2023/04/15 11:32:58;;;;;;;7.03;3.90;;;11.00;47.00;;;;;;5064397;28;20433;-57
2023/04/15 11:35:24;;;;;;;7.93;3.50;;;11.00;46.70;;;;;;5068575;28;20523;-55
2023/04/15 11:37:50;;;;;;;5.03;3.20;;;11.00;46.90;;;;;;5066016;28;20594;-55
2023/04/15 11:40:21;;;;;;;5.30;2.80;;;11.10;47.00;;;;;;5066109;28;21252;-56
2023/04/15 11:43:02;;;;;;;5.57;2.60;;;11.10;47.90;;;;;;5063567;28;20198;-56
2023/04/15 11:45:28;;;;;;;10.63;2.40;;;11.10;48.20;;;;;;5065676;28;20456;-57
2023/04/15 11:47:53;;;;;;;5.43;2.20;;;11.10;47.40;;;;;;5062514;28;20420;-57
2023/04/15 11:50:22;;;;;;;3.37;2.70;;;11.10;47.70;;;;;;5060294;28;20202;-56
2023/04/15 11:53:01;;;;;;;5.13;2.27;;;11.10;47.00;;;;;;5067114;28;20182;-55
2023/04/15 11:55:26;;;;;;;7.07;3.43;;;11.00;46.20;;;;;;5061085;28;20921;-56
2023/04/15 11:58:18;;;;;;;8.40;2.50;;;10.90;45.90;;;;;;5069306;28;20421;-56
2023/04/15 12:00:49;;;;;;;3.07;2.03;;;10.80;46.50;;;;;;5058770;28;20281;-55
2023/04/15 12:03:21;;;;;;;4.90;1.93;;;10.70;46.90;;;;;;5066242;28;20590;-57
2023/04/15 12:06:23;;;;;;;7.70;2.07;;;10.60;47.60;;;;;;5065188;28;20464;-55
2023/04/15 12:08:54;;;;;;;3.63;1.87;;;10.60;48.10;;;;;;5017405;28;20897;-56
2023/04/15 12:11:36;;;;;;;3.40;2.00;;;10.50;48.40;;;;;;5046809;28;20456;-57
2023/04/15 12:14:12;;;;;;;4.70;2.07;;;10.60;48.60;;;;;;5061396;28;20421;-56
2023/04/15 12:16:40;;;;;;;4.60;2.47;;;10.60;48.10;;;;;;5065069;28;20467;-56
2023/04/15 12:19:09;;;;;;;4.40;2.30;;;10.70;48.20;;;;;;5060445;28;20564;-56
2023/04/15 12:21:38;;;;;;;3.10;2.23;;;10.90;48.10;;;;;;5059812;28;20479;-56
2023/04/15 12:24:06;;;;;;;3.83;2.53;;;11.10;48.00;;;;;;5067330;28;20416;-56
2023/04/15 12:26:47;;;;;;;4.50;2.63;;;11.30;48.50;;;;;;5063468;28;20973;-56
2023/04/15 12:29:15;;;;;;;4.37;2.57;;;11.60;48.20;;;;;;5063450;28;20482;-56
2023/04/15 12:31:49;;;;;;;4.10;2.40;;;11.80;48.00;;;;;;5050379;28;20468;-54
2023/04/15 12:34:15;;;;;;;5.13;3.23;;;12.10;47.60;;;;;;5045195;28;20428;-55
2023/04/15 12:36:42;;;;;;;5.97;3.40;;;12.40;46.60;;;;;;5052399;28;20425;-56
2023/04/15 12:39:08;;;;;;;5.63;3.47;;;12.50;46.80;;;;;;5059322;28;20435;-56
2023/04/15 12:41:33;;;;;;;5.40;2.77;;;12.60;48.10;;;;;;5054396;28;20444;-57
2023/04/15 12:43:59;;;;;;;9.43;2.90;;;12.70;46.80;;;;;;5062078;28;20646;-56
2023/04/15 12:46:26;;;;;;;6.43;2.63;;;12.60;46.50;;;;;;5059551;22;20639;-60
2023/04/15 12:48:52;;;;;;;5.63;2.00;;;12.50;46.30;;;;;;5041846;28;20422;-58
2023/04/15 12:51:20;;;;;;;6.23;2.30;;;12.40;47.60;;;;;;5044138;28;20513;-58
2023/04/15 12:53:47;;;;;;;4.37;2.17;;;12.40;47.60;;;;;;5045128;28;20429;-58